ベルリン/テーゲル の空港の天気 - METARとTAF

ベルリン・テーゲル国際空港 ( EDDT / TXL ) - ドイツ ベルリン
飛行場実況気象(Metar)
観測時間06/17 21:20 CEST (06/17 19:20 UTC)
風向・風速東北東 2m/s
視程10km以上
天気現象
なし
気温24℃
湿度47%
気圧1019hPa
METAREDDT 171920Z 07004KT 040V100 CAVOK 24/12 Q1019 NOSIG
過去の天気等 Google飛行場航空写真 Wunderground天気予報

過去48時間のMETAR

飛行場予報(TAF)
発表時間: 6/17 19:00 CEST (6/17 17:00 UTC)
予報対象時間: 17日20時 CEST ~ 18日20時 CEST
風向・風速東北東 2m/s
視程10km以上
なし
18日7時 CEST ~ 18日9時 CEST に徐々に
風向・風速南東 5m/s
TAF EDDT 171700Z 1718/1818 07004KT CAVOK
BECMG 1805/1807 13009KT